Flight Track Log - Related Links

Times and Time Zones

All times are in EDT time to prevent confusion due to time zone crossing. See the UAL4431 flight status page for this flight to view local times or setup timezone preferences in your user account.

Time Position Orientation Groundspeed Altitude Reporting Facility
EDT Latitude Longitude Course Direction KTS MPH feet Rate Location/Type
Sat 05:41:14 PM 30.4581 -86.4108 84° East 235 270 4,100  Level Jacksonville Center
Sat 05:42:00 PM 30.7413 -86.6365 341° North  Level FlightAware Approximate
Sat 05:42:14 PM 30.5222 -86.4347 342° North 156 180 6,300  Level Jacksonville Center
Sat 05:43:00 PM 30.8167 -86.6881 270° West  Level FlightAware Approximate
Sat 05:43:14 PM 30.5833 -86.4853 325° Northwest 189 217 8,200  Level Jacksonville Center
Sat 05:44:00 PM 30.8105 -86.8019 264° West  Level FlightAware Approximate
Sat 05:44:14 PM 30.6486 -86.5361 326° Northwest 243 280 10,300  Level Jacksonville Center
Sat 05:45:00 PM 30.8001 -86.9155 264° West  Level FlightAware Approximate
Sat 05:45:14 PM 30.7158 -86.5942 323° Northwest 273 314 11,500  Level Jacksonville Center
Sat 05:46:14 PM 30.7956 -86.6531 328° Northwest 308 354 12,800 1,300 Climbing Jacksonville Center
Sat 05:47:14 PM 30.8233 -86.7750 285° West 324 373 14,100 1,250 Climbing Jacksonville Center
Sat 05:48:14 PM 30.8133 -86.8931 264° West 336 387 15,300 1,150 Climbing Jacksonville Center
Sat 05:49:14 PM 30.8114 -87.0139 269° West 352 405 16,400 1,050 Climbing Jacksonville Center
Sat 05:50:14 PM 30.8011 -87.1392 265° West 377 434 17,400 1,050 Climbing Jacksonville Center
Sat 05:51:14 PM 30.7947 -87.2672 267° West 391 450 18,500 1,114 Climbing Jacksonville Center
Sat 05:53:44 PM 30.7767 -87.5700 266° West 397 457 21,300 1,194 Climbing Houston Center
Sat 05:54:45 PM 30.7689 -87.6969 266° West 394 453 22,700 1,220 Climbing Houston Center
Sat 05:55:47 PM 30.7606 -87.8197 266° West 385 443 23,800 1,016 Climbing Houston Center
Sat 05:56:49 PM 30.7528 -87.9514 266° West 385 443 24,800 919 Climbing Houston Center
Sat 05:57:51 PM 30.7444 -88.0750 266° West 384 442 25,700 927 Climbing Houston Center
Sat 05:58:52 PM 30.7350 -88.1992 265° West 387 445 26,700 976 Climbing Houston Center
Sat 05:59:54 PM 30.7247 -88.3497 265° West 389 448 27,700 823 Climbing Houston Center
Sat 06:00:56 PM 30.6883 -88.4636 250° West 387 445 28,400 683 Climbing Houston Center
Sat 06:01:57 PM 30.6467 -88.5847 248° West 396 456 29,100 683 Climbing Houston Center
Sat 06:02:59 PM 30.6283 -88.7169 261° West 413 475 29,800 774 Climbing Houston Center
Sat 06:04:01 PM 30.6111 -88.8511 262° West 417 480 30,700 919 Climbing Houston Center
Sat 06:05:03 PM 30.5944 -88.9822 262° West 416 479 31,700 1,122 Climbing Houston Center
Sat 06:06:04 PM 30.5658 -89.1383 258° West 414 476 33,000 1,220 Climbing Houston Center
Sat 06:07:06 PM 30.4956 -89.2383 231° Southwest 400 460 34,200 927 Climbing Houston Center
Sat 06:08:07 PM 30.4122 -89.3236 221° Southwest 395 455 34,900 341 Climbing Houston Center
Sat 06:09:09 PM 30.3219 -89.4094 219° Southwest 409 471 34,900 48 Level Houston Center
Sat 06:10:11 PM 30.2256 -89.5019 220° Southwest 442 509 35,000  Climbing Houston Center
Sat 06:11:12 PM 30.1536 -89.6181 234° Southwest 439 505 34,900  Descending Houston Center
Sat 06:12:14 PM 30.1006 -89.7428 244° Southwest 426 490 35,000 48 Climbing Houston Center
Sat 06:13:16 PM 30.0700 -89.8775 255° West 429 494 35,000 -49 Level Houston Center
Sat 06:14:17 PM 30.0397 -90.0097 255° West 425 489 34,900 -49 Descending Houston Center
Sat 06:15:19 PM 30.0103 -90.1383 255° West 414 476 34,900 49 Level Houston Center
Sat 06:16:20 PM 29.9814 -90.2642 255° West 408 470 35,000  Climbing Houston Center
Sat 06:17:22 PM 29.9453 -90.4217 255° West 424 488 34,900  Descending Houston Center
Sat 06:18:24 PM 29.9133 -90.5569 255° West 436 502 35,000 49 Climbing Houston Center
Sat 06:19:25 PM 29.8828 -90.6919 255° West 436 502 35,000  Level Houston Center
Sat 06:20:27 PM 29.8506 -90.8261 255° West 434 499 35,000  Level Houston Center
Sat 06:21:29 PM 29.8192 -90.9606 255° West 436 502 35,000 -49 Level Houston Center
Sat 06:22:30 PM 29.7872 -91.0981 255° West 443 510 34,900  Descending Houston Center
Sat 06:23:32 PM 29.7539 -91.2372 255° West 450 518 35,000 48 Climbing Houston Center
Sat 06:24:34 PM 29.7203 -91.3753 254° West 451 519 35,000  Level Houston Center
Sat 06:25:35 PM 29.6806 -91.5414 255° West 451 519 35,000 -341 Level Houston Center
Sat 06:26:37 PM 29.6469 -91.6778 254° West 447 514 34,300 -484 Descending Houston Center
Sat 06:27:39 PM 29.6131 -91.8211 255° West 450 518 34,000 -146 Descending Houston Center
Sat 06:28:40 PM 29.5792 -91.9606 254° West 454 522 34,000  Level Houston Center
Sat 06:29:42 PM 29.5442 -92.1019 254° West 459 528 34,000  Level Houston Center
Sat 06:30:44 PM 29.5097 -92.2428 254° West 460 529 34,000  Level Houston Center
Sat 06:31:45 PM 29.4747 -92.3828 254° West 457 526 34,000  Level Houston Center
Sat 06:32:47 PM 29.4589 -92.5267 263° West 456 525 34,000  Level Houston Center
Sat 06:33:48 PM 29.4656 -92.6661 273° West 442 509 34,000  Level Houston Center
Sat 06:34:50 PM 29.4728 -92.8375 273° West 448 516 34,000 -48 Level Houston Center
Sat 06:35:52 PM 29.4800 -92.9811 273° West 450 518 33,900 -976 Descending Houston Center
Sat 06:36:53 PM 29.4869 -93.1222 273° West 445 512 32,000 -2,049 Descending Houston Center
Sat 06:37:55 PM 29.4925 -93.2658 273° West 448 516 29,700 -2,195 Descending Houston Center
Sat 06:38:56 PM 29.4986 -93.4117 273° West 455 524 27,500 -2,098 Descending Houston Center
Sat 06:39:58 PM 29.5047 -93.5572 273° West 456 525 25,400 -2,244 Descending Houston Center
Sat 06:40:59 PM 29.5103 -93.7039 273° West 459 528 22,900 -2,488 Descending Houston Center
Sat 06:42:01 PM 29.5144 -93.8406 272° West 433 498 20,300 -2,488 Descending Houston Center
Sat 06:43:02 PM 29.5203 -93.9753 273° West 423 487 17,800 -2,634 Descending Houston Center
Sat 06:44:04 PM 29.5256 -94.1283 272° West 402 463 14,900 -2,129 Descending Houston Center
Sat 06:45:06 PM 29.5294 -94.2433 272° West 387 445 13,400 -878 Descending Houston Center
Sat 06:46:07 PM 29.5394 -94.3556 276° West 361 415 13,100 -585 Descending Houston Center
Sat 06:47:09 PM 29.5800 -94.4536 295° West 342 394 12,200 -1,171 Descending Houston Center
Sat 06:48:10 PM 29.6186 -94.5458 296° West 324 373 10,700 -1,512 Descending Houston Center
Sat 06:49:12 PM 29.6708 -94.6278 306° West 271 312 9,100 -1,500 Descending Houston Center
Sat 06:50:14 PM 29.7300 -94.6842 320° Northwest 277 319 7,600 -1,512 Descending Houston Center
Sat 06:51:15 PM 29.7861 -94.7372 321° Northwest 264 304 6,000 -1,415 Descending Houston Center
Sat 06:52:17 PM 29.8406 -94.7878 321° Northwest 254 292 4,700 -952 Descending Houston Center
Sat 06:53:21 PM 29.8914 -94.8603 309° West 252 290 4,000 -390 Descending Houston Center
Sat 06:54:20 PM 29.9247 -94.9178 304° West 256 295 3,900 -550 Descending Houston Center
Sat 06:55:21 PM 29.9472 -95.0147 285° West 261 300 2,900 -829 Descending Houston Center
Sat 06:56:23 PM 29.9678 -95.0931 287° West 259 298 2,200 -435 Descending Houston Center
Sat 06:57:25 PM 29.9778 -95.1694 279° West 251 289 2,000 -194 Descending Houston Center

Login

Don't have an account? Register now (free) for customized features, flight alerts, and more!